Time;durP1;ratioP1;P1;durP2;ratioP2;P2;SDS_P1;SDS_P2;PMS_P1;PMS_P2;Temp;Humidity;BMP_temperature;BMP_pressure;BME280_temperature;BME280_humidity;BME280_pressure;Samples;Min_cycle;Max_cycle;Signal;HPM_P1;HPM_P2
2023/12/06 00:01:25;;;;;;;15.35;11.63;;;;;;;-145.63;49.74;39084.88;5067979;28;20213;-60
2023/12/06 00:03:51;;;;;;;15.95;11.75;;;;;;;-145.63;49.32;39079.00;5083224;28;20200;-61
2023/12/06 00:06:16;;;;;;;16.17;11.98;;;;;;;-145.63;49.22;39090.75;5081990;28;20032;-62
2023/12/06 00:08:42;;;;;;;15.40;11.57;;;;;;;-145.63;50.37;39032.06;5082961;28;20043;-62
2023/12/06 00:11:08;;;;;;;14.27;11.90;;;;;;;-145.63;49.08;39053.59;5082724;28;20028;-62
2023/12/06 00:13:33;;;;;;;14.50;11.57;;;;;;;-145.63;48.44;39080.97;5075474;28;20036;-61
2023/12/06 00:16:00;;;;;;;14.63;12.23;;;;;;;-145.63;49.02;39063.34;5064861;28;20174;-63
2023/12/06 00:18:26;;;;;;;14.65;11.75;;;;;;;-145.63;49.86;39088.78;5082891;28;20024;-62
2023/12/06 00:20:52;;;;;;;16.00;12.13;;;;;;;-145.63;50.31;39030.13;5090645;28;20048;-62
2023/12/06 00:23:17;;;;;;;16.02;12.52;;;;;;;-145.63;50.66;39057.50;5082737;28;20024;-62
2023/12/06 00:25:43;;;;;;;16.92;12.45;;;;;;;-145.63;50.27;39088.78;5075109;28;20025;-60
2023/12/06 00:28:09;;;;;;;16.13;12.35;;;;;;;-145.63;50.30;39063.34;5065415;28;20028;-60
2023/12/06 00:30:36;;;;;;;14.90;11.65;;;;;;;-145.63;50.14;39051.63;5082166;28;20016;-61
2023/12/06 00:33:03;;;;;;;15.90;11.50;;;;;;;-145.63;50.20;39057.50;5063760;28;20036;-61
2023/12/06 00:35:28;;;;;;;15.45;12.38;;;;;;;-145.63;49.74;39037.94;5076630;28;20142;-61
2023/12/06 00:37:54;;;;;;;15.93;12.10;;;;;;;-145.63;49.06;39067.28;5073607;28;20033;-62
2023/12/06 00:40:20;;;;;;;16.10;11.57;;;;;;;-145.63;48.53;39061.41;5062510;28;20368;-61
2023/12/06 00:42:46;;;;;;;14.38;12.25;;;;;;;-145.63;49.64;39067.28;5062639;28;20032;-62
2023/12/06 00:45:11;;;;;;;15.50;12.15;;;;;;;-145.63;49.58;39034.03;5081928;28;20048;-61
2023/12/06 00:47:37;;;;;;;16.05;12.45;;;;;;;-145.63;50.38;39080.97;5082448;28;20020;-61
2023/12/06 00:50:04;;;;;;;16.90;12.93;;;;;;;-145.63;50.38;39067.28;5082456;28;20221;-62
2023/12/06 00:52:30;;;;;;;15.80;12.15;;;;;;;-145.63;50.67;39075.09;5081923;28;20024;-62
2023/12/06 00:54:56;;;;;;;14.88;11.32;;;;;;;-145.63;50.07;39110.28;5082304;28;20058;-62
2023/12/06 00:57:22;;;;;;;15.30;12.35;;;;;;;-145.63;49.44;39080.97;5077879;28;20059;-61
2023/12/06 00:59:48;;;;;;;16.10;12.23;;;;;;;-145.63;49.11;39071.19;5065612;28;20020;-61
2023/12/06 01:02:13;;;;;;;16.17;12.20;;;;;;;-145.63;49.50;39059.44;5062598;28;20025;-61
2023/12/06 01:04:39;;;;;;;14.48;11.38;;;;;;;-145.63;49.46;39067.28;5077441;28;20024;-60
2023/12/06 01:07:05;;;;;;;17.13;12.60;;;;;;;-145.63;50.70;39079.00;5081911;28;20027;-62
2023/12/06 01:09:31;;;;;;;16.33;12.93;;;;;;;-145.63;50.32;39071.19;5082209;28;20084;-62
2023/12/06 01:12:00;;;;;;;16.75;12.88;;;;;;;-145.63;50.06;39061.41;5082205;28;20091;-61
2023/12/06 01:14:25;;;;;;;16.90;13.57;;;;;;;-145.63;49.90;39063.34;5081944;28;20142;-62
2023/12/06 01:16:51;;;;;;;18.35;13.52;;;;;;;-145.63;50.11;39065.31;5081959;28;20024;-62
2023/12/06 01:19:17;;;;;;;18.92;13.50;;;;;;;-145.63;50.54;39080.97;5070305;28;20096;-62
2023/12/06 01:21:43;;;;;;;16.23;12.90;;;;;;;-145.63;50.56;39077.06;5068897;28;20044;-62
2023/12/06 01:24:09;;;;;;;15.93;12.68;;;;;;;-145.63;49.90;39071.19;5082126;28;20232;-62
2023/12/06 01:26:34;;;;;;;17.88;14.00;;;;;;;-145.63;51.01;39086.81;5082006;28;20088;-62
2023/12/06 01:29:03;;;;;;;18.23;14.30;;;;;;;-145.63;50.98;39075.09;5082052;28;20025;-61
2023/12/06 01:31:29;;;;;;;18.02;13.98;;;;;;;-145.63;51.17;39045.75;5095265;28;20048;-61
2023/12/06 01:33:55;;;;;;;19.67;13.77;;;;;;;-145.63;51.22;39098.56;5092495;28;20024;-61
2023/12/06 01:36:21;;;;;;;19.38;14.18;;;;;;;-145.63;50.28;39063.34;5078782;28;20049;-62
2023/12/06 01:38:48;;;;;;;18.75;14.15;;;;;;;-145.63;49.96;39059.44;5061919;28;20025;-62
2023/12/06 01:41:13;;;;;;;19.10;13.82;;;;;;;-145.63;50.93;39061.41;5082178;28;20090;-61
2023/12/06 01:43:43;;;;;;;18.65;14.20;;;;;;;-145.63;51.31;39094.66;5071189;28;20025;-60
2023/12/06 01:46:10;;;;;;;19.65;14.98;;;;;;;-145.63;51.41;39043.81;5075863;28;20066;-62
2023/12/06 01:48:37;;;;;;;20.38;13.98;;;;;;;-145.63;51.11;39028.16;5085575;28;20024;-62
2023/12/06 01:51:04;;;;;;;18.98;13.85;;;;;;;-145.63;50.98;39071.19;5085490;28;20050;-62
2023/12/06 01:53:31;;;;;;;19.73;14.60;;;;;;;-145.63;51.10;39039.88;5085463;28;20031;-62
2023/12/06 01:55:58;;;;;;;18.98;15.18;;;;;;;-145.63;51.50;39039.88;5085604;28;20024;-61
2023/12/06 01:58:24;;;;;;;18.92;14.63;;;;;;;-145.63;51.66;39024.25;5085431;28;20043;-61
2023/12/06 02:00:51;;;;;;;20.85;15.43;;;;;;;-145.63;51.86;39039.88;5077740;28;20017;-61
2023/12/06 02:03:18;;;;;;;21.33;16.33;;;;;;;-145.63;52.08;39059.44;5067998;28;20053;-61
2023/12/06 02:05:44;;;;;;;19.88;14.70;;;;;;;-145.63;51.81;39047.72;5085071;28;20297;-62
2023/12/06 02:08:11;;;;;;;21.88;16.00;;;;;;;-145.63;51.40;39123.97;5085121;28;20016;-61
2023/12/06 02:10:37;;;;;;;21.42;14.60;;;;;;;-145.63;51.94;39024.25;5083947;28;20047;-61
2023/12/06 02:13:03;;;;;;;21.80;16.75;;;;;;;-145.63;52.14;39043.81;5075669;28;20029;-61
2023/12/06 02:15:29;;;;;;;20.23;15.95;;;;;;;-145.63;52.23;39063.34;5068262;28;20024;-62
2023/12/06 02:17:55;;;;;;;21.08;15.50;;;;;;;-145.63;52.11;39026.19;5084966;28;20062;-61
2023/12/06 02:20:22;;;;;;;23.67;16.52;;;;;;;-145.63;51.93;39041.84;5065206;28;20321;-62
2023/12/06 02:22:49;;;;;;;21.35;15.73;;;;;;;-145.63;51.92;39075.09;5080300;28;20099;-61
2023/12/06 02:25:16;;;;;;;21.58;15.52;;;;;;;-145.63;52.35;39057.50;5084650;28;20312;-61
2023/12/06 02:27:43;;;;;;;22.92;16.67;;;;;;;-145.63;52.14;39012.50;5084701;28;20044;-61
2023/12/06 02:30:10;;;;;;;24.70;17.10;;;;;;;-145.63;52.14;39030.13;5086184;28;20357;-62
2023/12/06 02:32:36;;;;;;;24.88;17.02;;;;;;;-145.63;52.18;39034.03;5104907;28;20020;-61
2023/12/06 02:35:21;;;;;;;23.23;16.95;;;;;;;-145.63;52.12;39057.50;5087024;28;20111;-60
2023/12/06 02:37:49;;;;;;;22.58;16.60;;;;;;;-145.63;52.66;39026.19;5069439;28;20025;-61
2023/12/06 02:40:16;;;;;;;26.77;17.88;;;;;;;-145.63;52.40;39041.84;5080143;28;20025;-62
2023/12/06 02:42:42;;;;;;;24.63;17.63;;;;;;;-145.63;52.02;39055.53;5078443;28;20047;-62
2023/12/06 02:45:08;;;;;;;22.33;16.05;;;;;;;-145.63;52.46;39053.59;5065192;28;20021;-62
2023/12/06 02:47:34;;;;;;;22.17;16.70;;;;;;;-145.63;52.31;39020.34;5084426;28;20030;-61
2023/12/06 02:49:59;;;;;;;24.38;17.30;;;;;;;-145.63;52.16;39035.97;5084417;28;20036;-61
2023/12/06 02:52:25;;;;;;;25.35;18.23;;;;;;;-145.63;52.40;39014.47;5083474;28;20024;-62
2023/12/06 02:54:51;;;;;;;24.90;18.08;;;;;;;-145.63;52.69;39014.47;5084181;28;20028;-61
2023/12/06 02:57:17;;;;;;;22.73;17.27;;;;;;;-145.63;52.30;39035.97;5083961;28;20020;-61
2023/12/06 02:59:42;;;;;;;25.05;17.95;;;;;;;-145.63;52.59;39030.13;5084465;28;20028;-62
2023/12/06 03:02:08;;;;;;;27.42;17.80;;;;;;;-145.63;51.89;39032.06;5066205;28;20020;-62
2023/12/06 03:04:33;;;;;;;23.00;17.98;;;;;;;-145.63;51.71;39043.81;5077087;28;20056;-62
2023/12/06 03:06:59;;;;;;;22.75;17.23;;;;;;;-145.63;52.33;39030.13;5083834;28;20028;-61
2023/12/06 03:09:25;;;;;;;26.70;19.45;;;;;;;-145.63;51.98;39020.34;5080386;28;20103;-62
2023/12/06 03:11:50;;;;;;;25.30;17.90;;;;;;;-145.63;52.88;39045.75;5064127;28;20193;-62
2023/12/06 03:14:16;;;;;;;27.67;18.13;;;;;;;-145.63;52.20;39018.38;5082607;28;20052;-62
2023/12/06 03:16:42;;;;;;;25.15;18.35;;;;;;;-145.63;51.95;39024.25;5070105;28;20040;-62
2023/12/06 03:19:07;;;;;;;25.92;18.65;;;;;;;-145.63;52.55;39041.84;5072715;28;20028;-63
2023/12/06 03:21:33;;;;;;;26.95;19.73;;;;;;;-145.63;51.87;39035.97;5079265;28;20100;-63
2023/12/06 03:23:59;;;;;;;26.77;18.60;;;;;;;-145.63;51.75;39047.72;5064154;28;20039;-61
2023/12/06 03:26:25;;;;;;;24.08;18.35;;;;;;;-145.63;52.48;39034.03;5083128;28;20071;-61
2023/12/06 03:28:50;;;;;;;26.63;18.40;;;;;;;-145.63;51.87;39032.06;5082490;28;20051;-62
2023/12/06 03:31:16;;;;;;;23.83;18.05;;;;;;;-145.63;52.69;39039.88;5072935;28;20032;-63
2023/12/06 03:33:42;;;;;;;27.02;19.02;;;;;;;-145.63;52.65;39030.13;5074734;28;20200;-62
2023/12/06 03:36:11;;;;;;;24.83;18.38;;;;;;;-145.63;52.44;39022.28;5103221;28;20067;-60
2023/12/06 03:38:37;;;;;;;23.85;17.42;;;;;;;-145.63;51.97;38989.03;5083543;28;20031;-61
2023/12/06 03:41:03;;;;;;;28.80;22.38;;;;;;;-145.63;52.78;39026.19;5066144;28;20025;-61
2023/12/06 03:43:28;;;;;;;27.42;19.25;;;;;;;-145.63;52.35;39049.66;5075429;28;20031;-62
2023/12/06 03:45:54;;;;;;;25.50;18.90;;;;;;;-145.63;52.50;39020.34;5076106;28;20027;-61
2023/12/06 03:48:20;;;;;;;25.02;18.50;;;;;;;-145.63;52.81;39065.31;5070317;28;20016;-61
2023/12/06 03:50:45;;;;;;;27.35;19.73;;;;;;;-145.63;52.36;39053.59;5063339;28;20313;-62
2023/12/06 03:53:11;;;;;;;26.92;18.42;;;;;;;-145.63;51.81;38859.97;5080565;28;20086;-61
2023/12/06 03:55:37;;;;;;;24.75;18.17;;;;;;;-145.63;51.29;39012.50;5083229;28;20047;-61
2023/12/06 03:58:04;;;;;;;27.33;19.67;;;;;;;-145.63;52.16;39067.28;5074743;28;20033;-60
2023/12/06 04:00:30;;;;;;;26.73;18.35;;;;;;;-145.63;51.17;38989.03;5066626;28;20309;-63
2023/12/06 04:02:57;;;;;;;27.60;19.33;;;;;;;-145.63;51.69;39016.44;5082666;28;20024;-62
2023/12/06 04:05:23;;;;;;;27.48;19.30;;;;;;;-145.63;51.83;39047.72;5081907;28;20039;-62
2023/12/06 04:07:49;;;;;;;26.45;19.27;;;;;;;-145.63;51.81;39018.38;5077318;28;20020;-61
2023/12/06 04:10:15;;;;;;;26.10;18.83;;;;;;;-145.63;51.35;39018.38;5072968;28;20033;-61
2023/12/06 04:12:40;;;;;;;28.35;19.80;;;;;;;-145.63;51.72;39006.66;5067735;28;20095;-60
2023/12/06 04:15:07;;;;;;;26.52;19.35;;;;;;;-145.63;52.47;39028.16;5082118;28;20032;-61
2023/12/06 04:17:32;;;;;;;28.90;20.23;;;;;;;-145.63;51.45;39049.66;5062575;28;20051;-61
2023/12/06 04:19:58;;;;;;;26.20;18.95;;;;;;;-145.63;51.11;39043.81;5062547;28;20024;-61
2023/12/06 04:22:24;;;;;;;27.48;18.77;;;;;;;-145.63;52.17;39028.16;5073209;28;20070;-62
2023/12/06 04:24:49;;;;;;;25.40;19.40;;;;;;;-145.63;52.40;39043.81;5076585;28;20032;-61
2023/12/06 04:27:15;;;;;;;29.00;20.05;;;;;;;-145.63;51.64;39039.88;5063464;28;20021;-61
2023/12/06 04:29:41;;;;;;;25.92;19.67;;;;;;;-145.63;51.58;39090.75;5082633;28;20032;-61
2023/12/06 04:32:07;;;;;;;25.85;19.75;;;;;;;-145.63;51.33;39026.19;5081831;28;20020;-64
2023/12/06 04:34:33;;;;;;;28.33;19.75;;;;;;;-145.63;52.00;39034.03;5082467;28;20312;-62
2023/12/06 04:36:59;;;;;;;25.00;19.30;;;;;;;-145.63;51.75;39030.13;5074913;28;20051;-65
2023/12/06 04:39:25;;;;;;;27.17;19.40;;;;;;;-145.63;52.19;39045.75;5064789;28;20329;-65
2023/12/06 04:41:50;;;;;;;26.50;19.17;;;;;;;-145.63;52.44;39051.63;5082539;28;20035;-63
2023/12/06 04:44:16;;;;;;;27.85;19.90;;;;;;;-145.63;52.00;39063.34;5064439;28;20049;-64
2023/12/06 04:46:42;;;;;;;27.17;19.35;;;;;;;-145.63;51.56;39020.34;5075342;28;20028;-66
2023/12/06 04:49:08;;;;;;;22.60;17.45;;;;;;;-145.63;51.74;39024.25;5081866;28;20025;-64
2023/12/06 04:51:33;;;;;;;26.55;18.92;;;;;;;-145.63;51.31;39094.66;5082192;28;20024;-65
2023/12/06 04:53:59;;;;;;;23.88;18.10;;;;;;;-145.63;51.57;39041.84;5082222;28;20236;-63
2023/12/06 04:56:25;;;;;;;24.25;18.10;;;;;;;-145.63;51.29;39061.41;5082199;28;20083;-63
2023/12/06 04:58:51;;;;;;;24.05;17.80;;;;;;;-145.63;51.16;39034.03;5069016;28;20098;-65
2023/12/06 05:01:16;;;;;;;24.35;17.88;;;;;;;-145.63;51.11;39008.59;5081775;28;20117;-64
2023/12/06 05:03:42;;;;;;;25.15;19.02;;;;;;;-145.63;50.52;39032.06;5076038;28;20033;-63
2023/12/06 05:06:08;;;;;;;25.10;18.33;;;;;;;-145.63;50.49;39028.16;5081992;28;20028;-65
2023/12/06 05:08:34;;;;;;;22.45;17.25;;;;;;;-145.63;51.01;39010.56;5061845;28;20086;-64
2023/12/06 05:11:00;;;;;;;22.88;17.23;;;;;;;-145.63;50.67;39043.81;5061845;28;20036;-65
2023/12/06 05:13:26;;;;;;;23.77;17.27;;;;;;;-145.63;51.37;39055.53;5072604;28;20028;-64
2023/12/06 05:15:52;;;;;;;21.70;16.98;;;;;;;-145.63;51.61;39061.41;5076918;28;20025;-64
2023/12/06 05:18:17;;;;;;;21.77;16.13;;;;;;;-145.63;51.47;39034.03;5067113;28;20045;-65
2023/12/06 05:20:43;;;;;;;18.75;14.88;;;;;;;-145.63;50.47;39020.34;5085961;28;20028;-66
2023/12/06 05:23:09;;;;;;;20.80;16.40;;;;;;;-145.63;50.68;39051.63;5068813;28;20096;-64
2023/12/06 05:25:35;;;;;;;21.02;16.80;;;;;;;-145.63;51.42;38867.81;5077692;28;20241;-64
2023/12/06 05:28:00;;;;;;;21.67;15.63;;;;;;;-145.63;50.94;38989.03;5086049;28;20032;-67
2023/12/06 05:30:26;;;;;;;23.25;15.70;;;;;;;-145.63;49.95;39024.25;5083336;28;20020;-64
2023/12/06 05:32:52;;;;;;;22.50;16.83;;;;;;;-145.63;51.06;39024.25;5065756;28;20029;-65
2023/12/06 05:35:18;;;;;;;22.08;17.15;;;;;;;-145.63;51.08;39026.19;5083333;28;20289;-65
2023/12/06 05:37:44;;;;;;;26.45;18.05;;;;;;;-145.63;51.04;39035.97;5072822;28;20066;-64
2023/12/06 05:40:10;;;;;;;27.48;17.35;;;;;;;-145.63;50.73;39034.03;5073717;28;20336;-64
2023/12/06 05:42:35;;;;;;;22.80;16.80;;;;;;;-145.63;51.23;39034.03;5082331;28;20017;-64
2023/12/06 05:45:02;;;;;;;22.65;17.85;;;;;;;-145.63;51.01;39063.34;5065670;28;20478;-65
2023/12/06 05:47:30;;;;;;;27.05;18.23;;;;;;;-145.63;50.87;39018.38;5084729;28;20025;-64
2023/12/06 05:49:56;;;;;;;23.67;17.83;;;;;;;-145.63;50.99;39075.09;5085559;28;20105;-65
2023/12/06 05:52:21;;;;;;;25.45;18.15;;;;;;;-145.63;50.68;39041.84;5085099;28;20064;-64
2023/12/06 05:54:47;;;;;;;25.13;18.90;;;;;;;-145.63;50.59;39012.50;5085300;28;20302;-65
2023/12/06 05:57:13;;;;;;;23.90;17.77;;;;;;;-145.63;50.42;39079.00;5085142;28;20036;-65
2023/12/06 05:59:38;;;;;;;24.15;18.23;;;;;;;-145.63;50.75;39028.16;5085475;28;20028;-64
2023/12/06 06:02:04;;;;;;;22.83;17.55;;;;;;;-145.63;50.41;38859.97;5082818;28;20036;-64
2023/12/06 06:04:30;;;;;;;23.98;17.92;;;;;;;-145.63;50.89;39026.19;5085202;28;20340;-65
2023/12/06 06:06:56;;;;;;;25.27;17.52;;;;;;;-145.63;50.71;39018.38;5085100;28;20024;-65
2023/12/06 06:09:21;;;;;;;24.33;17.65;;;;;;;-145.63;51.01;38998.81;5082555;28;20091;-65
2023/12/06 06:11:49;;;;;;;27.92;18.75;;;;;;;-145.63;50.64;39004.69;5080892;28;20359;-64
2023/12/06 06:14:15;;;;;;;25.25;17.83;;;;;;;-145.63;50.97;39037.94;5081907;28;20023;-65
2023/12/06 06:16:40;;;;;;;25.40;18.13;;;;;;;-145.63;51.49;39008.59;5072951;28;20033;-65
2023/12/06 06:19:06;;;;;;;28.75;18.58;;;;;;;-145.63;51.66;38994.91;5072100;28;20032;-64
2023/12/06 06:21:32;;;;;;;25.50;19.25;;;;;;;-145.63;50.09;38983.19;5082336;28;20024;-63
2023/12/06 06:23:58;;;;;;;25.25;18.30;;;;;;;-145.63;50.55;38965.56;5065200;28;20070;-64
2023/12/06 06:26:24;;;;;;;26.67;19.52;;;;;;;-145.63;51.08;39014.47;5082700;28;20041;-64
2023/12/06 06:28:49;;;;;;;27.45;19.20;;;;;;;-145.63;50.78;38996.88;5083729;28;20048;-63
2023/12/06 06:31:15;;;;;;;25.17;19.00;;;;;;;-145.63;50.31;38979.28;5084256;28;20221;-64
2023/12/06 06:33:41;;;;;;;25.13;17.90;;;;;;;-145.63;50.85;39006.66;5084730;28;20068;-63
2023/12/06 06:36:07;;;;;;;26.83;18.77;;;;;;;-145.63;51.28;39016.44;5085222;28;20045;-65
2023/12/06 06:38:33;;;;;;;25.92;17.60;;;;;;;-145.63;50.55;38996.88;5084497;28;20024;-64
2023/12/06 06:40:58;;;;;;;25.60;17.95;;;;;;;-145.63;51.18;38992.97;5084485;28;20025;-65
2023/12/06 06:43:24;;;;;;;25.63;18.50;;;;;;;-145.63;50.64;38998.81;5074878;28;20100;-64
2023/12/06 06:45:50;;;;;;;24.65;18.10;;;;;;;-145.63;50.07;38996.88;5069422;28;20235;-65
2023/12/06 06:48:15;;;;;;;24.38;18.40;;;;;;;-145.63;51.19;39004.69;5084320;28;20293;-64
2023/12/06 06:50:41;;;;;;;22.65;17.30;;;;;;;-145.63;50.20;38449.34;5084397;28;20082;-64
2023/12/06 06:53:10;;;;;;;23.42;17.70;;;;;;;-145.63;49.91;39030.13;5083862;28;20024;-63
2023/12/06 06:55:36;;;;;;;21.85;17.73;;;;;;;-145.63;50.29;38979.28;5083920;28;20035;-65
2023/12/06 06:58:03;;;;;;;26.40;18.38;;;;;;;-145.63;49.40;38987.09;5078128;28;20199;-64
2023/12/06 07:00:29;;;;;;;22.70;17.58;;;;;;;-145.63;49.78;39028.16;5048129;28;20032;-66
2023/12/06 07:02:55;;;;;;;24.85;18.25;;;;;;;-145.63;50.09;38989.03;5084294;28;20092;-64
2023/12/06 07:05:20;;;;;;;24.77;18.85;;;;;;;-145.63;49.36;39020.34;5066482;28;20033;-64
2023/12/06 07:07:46;;;;;;;26.42;19.15;;;;;;;-145.63;50.31;38991.00;5076394;28;20210;-65
2023/12/06 07:10:12;;;;;;;24.02;18.17;;;;;;;-145.63;50.07;39004.69;5076044;28;20059;-65
2023/12/06 07:12:39;;;;;;;24.83;17.75;;;;;;;-145.63;49.76;39020.34;5073627;28;20031;-65
2023/12/06 07:15:06;;;;;;;24.80;17.80;;;;;;;-145.63;50.55;39002.72;5063840;28;20028;-65
2023/12/06 07:17:32;;;;;;;23.33;17.25;;;;;;;-145.63;50.22;39002.72;5082806;28;20301;-64
2023/12/06 07:19:58;;;;;;;23.35;17.42;;;;;;;-145.63;49.75;39080.97;5069836;28;20028;-64
2023/12/06 07:22:24;;;;;;;26.42;18.70;;;;;;;-145.63;49.20;38973.41;5073008;28;20048;-65
2023/12/06 07:24:50;;;;;;;25.02;18.73;;;;;;;-145.63;49.70;38977.31;5079266;28;20067;-65
2023/12/06 07:27:16;;;;;;;23.55;17.30;;;;;;;-145.63;49.42;38949.94;5063493;28;20032;-65
2023/12/06 07:29:44;;;;;;;24.95;18.15;;;;;;;-145.63;49.48;39004.69;5083517;28;20090;-65
2023/12/06 07:32:10;;;;;;;23.58;17.23;;;;;;;-145.63;49.88;38991.00;5067823;28;20045;-66
2023/12/06 07:34:36;;;;;;;26.20;18.90;;;;;;;-145.63;49.40;39004.69;5085039;28;20055;-66
2023/12/06 07:37:02;;;;;;;21.88;16.55;;;;;;;-145.63;50.01;38987.09;5078685;28;20039;-65
2023/12/06 07:39:27;;;;;;;22.90;17.13;;;;;;;-145.63;48.30;38285.09;5081758;28;20182;-65
2023/12/06 07:41:53;;;;;;;23.13;17.58;;;;;;;-145.63;48.76;38994.91;5063502;28;20021;-67
2023/12/06 07:44:22;;;;;;;21.08;16.95;;;;;;;-145.63;49.76;38991.00;5079924;28;20086;-63
2023/12/06 07:46:48;;;;;;;22.02;16.52;;;;;;;-145.63;49.23;39039.88;5071186;28;20047;-63
2023/12/06 07:49:15;;;;;;;21.80;15.52;;;;;;;-145.63;48.16;38989.03;5077249;28;20029;-64
2023/12/06 07:51:41;;;;;;;20.65;15.68;;;;;;;-145.63;47.78;38969.50;5083515;28;20020;-63
2023/12/06 07:54:07;;;;;;;22.67;16.92;;;;;;;-145.63;49.17;38985.13;5082899;28;20047;-64
2023/12/06 07:56:33;;;;;;;24.95;17.08;;;;;;;-145.63;49.26;39002.72;5083217;28;20039;-64
2023/12/06 07:59:00;;;;;;;22.77;17.27;;;;;;;-145.63;48.27;39039.88;5068965;28;20092;-63
2023/12/06 08:01:31;;;;;;;20.55;15.82;;;;;;;-145.63;48.47;38996.88;5071867;28;20048;-62
2023/12/06 08:04:00;;;;;;;20.55;15.55;;;;;;;-145.63;47.42;39008.59;5082941;28;20039;-63
2023/12/06 08:06:27;;;;;;;22.85;16.08;;;;;;;-145.63;47.55;38991.00;5082781;28;20179;-63
2023/12/06 08:08:53;;;;;;;25.95;17.20;;;;;;;-145.63;48.76;39002.72;5082638;28;20028;-63
2023/12/06 08:11:20;;;;;;;22.00;16.08;;;;;;;-145.63;48.12;38989.03;5066191;28;20028;-63
2023/12/06 08:13:47;;;;;;;19.95;16.27;;;;;;;-145.63;47.99;38985.13;5090062;28;20024;-63
2023/12/06 08:16:13;;;;;;;19.95;15.98;;;;;;;-145.63;48.27;39000.78;5070631;28;20016;-62
2023/12/06 08:18:39;;;;;;;20.98;15.98;;;;;;;-145.63;46.93;38989.03;5078005;28;20190;-64
2023/12/06 08:21:07;;;;;;;18.08;14.93;;;;;;;-145.63;48.36;38977.31;5076198;28;20032;-64
2023/12/06 08:23:34;;;;;;;20.65;15.93;;;;;;;-145.63;48.39;39006.66;5064184;28;20355;-63
2023/12/06 08:26:00;;;;;;;20.65;16.17;;;;;;;-145.63;47.88;38959.72;5075966;28;20035;-64
2023/12/06 08:28:26;;;;;;;21.38;15.75;;;;;;;-145.63;48.54;38992.97;5081376;28;20204;-63
2023/12/06 08:30:52;;;;;;;22.73;16.52;;;;;;;-145.63;48.77;38985.13;5078434;28;20025;-63
2023/12/06 08:33:19;;;;;;;20.67;15.43;;;;;;;-145.63;47.96;39010.56;5062097;28;20366;-64
2023/12/06 08:35:45;;;;;;;22.20;16.48;;;;;;;-145.63;47.96;39006.66;5101861;28;20044;-64
2023/12/06 08:38:11;;;;;;;22.13;16.85;;;;;;;-145.63;48.75;39004.69;5087393;28;20029;-63
2023/12/06 08:40:37;;;;;;;21.98;16.27;;;;;;;-145.63;47.99;39004.69;5072175;28;20025;-64
2023/12/06 08:43:03;;;;;;;19.08;15.50;;;;;;;-145.63;47.71;39008.59;5067902;28;20039;-64
2023/12/06 08:45:29;;;;;;;25.38;19.15;;;;;;;-145.63;47.59;39014.47;5081406;28;20111;-64
2023/12/06 08:47:54;;;;;;;22.42;16.92;;;;;;;-145.63;48.11;38998.81;5080616;28;20025;-63
2023/12/06 08:50:21;;;;;;;22.33;17.33;;;;;;;-145.63;48.97;38996.88;5081676;28;20059;-66
2023/12/06 08:52:46;;;;;;;20.30;16.13;;;;;;;-145.63;48.81;38979.28;5071094;28;20202;-64
2023/12/06 08:55:12;;;;;;;23.25;17.33;;;;;;;-145.63;47.62;38971.44;5077173;28;20043;-64
2023/12/06 08:57:39;;;;;;;22.23;15.88;;;;;;;-145.63;46.64;38998.81;5080431;28;20028;-65
2023/12/06 09:00:07;;;;;;;20.27;14.93;;;;;;;-145.63;48.30;39020.34;5062081;28;20024;-64
2023/12/06 09:02:36;;;;;;;20.20;15.43;;;;;;;-145.63;47.27;38953.84;5080218;28;20024;-64
2023/12/06 09:05:01;;;;;;;21.95;16.23;;;;;;;-145.63;47.59;38989.03;5068656;28;20032;-66
2023/12/06 09:07:29;;;;;;;23.08;16.63;;;;;;;-145.63;47.74;38994.91;5071511;28;20067;-64
2023/12/06 09:09:55;;;;;;;25.02;17.27;;;;;;;-145.63;47.49;39000.78;5078027;28;20029;-65
2023/12/06 09:12:21;;;;;;;21.83;16.55;;;;;;;-145.63;47.81;39018.38;5062317;28;20029;-64
2023/12/06 09:14:47;;;;;;;19.60;16.02;;;;;;;-145.63;47.11;39032.06;5097582;28;20453;-64
2023/12/06 09:17:12;;;;;;;22.17;16.95;;;;;;;-145.63;47.42;39012.50;5081875;28;20032;-64
2023/12/06 09:19:38;;;;;;;22.77;16.92;;;;;;;-145.63;48.57;38987.09;5070901;28;20025;-65
2023/12/06 09:22:05;;;;;;;22.08;16.70;;;;;;;-145.63;47.41;39032.06;5065885;28;20062;-65
2023/12/06 09:24:31;;;;;;;20.65;17.17;;;;;;;-145.63;47.73;39061.41;5081494;28;20092;-65
2023/12/06 09:26:57;;;;;;;23.33;17.77;;;;;;;-145.63;47.08;39030.13;5062095;28;20096;-65
2023/12/06 09:29:22;;;;;;;28.88;19.20;;;;;;;-145.63;48.60;38992.97;5077690;28;20537;-64
2023/12/06 09:31:48;;;;;;;25.30;19.05;;;;;;;-145.63;48.75;39002.72;5070364;28;20491;-65
2023/12/06 09:34:14;;;;;;;26.13;18.42;;;;;;;-145.63;48.33;39028.16;5074330;28;20024;-66
2023/12/06 09:36:40;;;;;;;26.63;19.23;;;;;;;-145.63;47.55;39028.16;5082092;28;20048;-65
2023/12/06 09:39:05;;;;;;;24.45;18.13;;;;;;;-145.63;47.57;38992.97;5081624;28;20040;-64
2023/12/06 09:41:32;;;;;;;25.27;17.90;;;;;;;-145.63;47.89;38985.13;5081738;28;20033;-65
2023/12/06 09:44:01;;;;;;;25.73;19.90;;;;;;;-145.63;48.47;39014.47;5069064;28;20083;-65
2023/12/06 09:46:27;;;;;;;31.20;22.70;;;;;;;-145.63;47.71;39028.16;5079820;28;20028;-64
2023/12/06 09:48:53;;;;;;;34.15;21.58;;;;;;;-145.63;48.02;39000.78;5081585;28;20067;-67
2023/12/06 09:51:20;;;;;;;28.90;20.67;;;;;;;-145.63;48.67;39051.63;5081425;28;20082;-65
2023/12/06 09:53:46;;;;;;;29.33;20.92;;;;;;;-145.63;47.75;39010.56;5065407;28;20016;-64
2023/12/06 09:56:13;;;;;;;28.50;19.48;;;;;;;-145.63;47.72;38975.34;5080151;28;20058;-64
2023/12/06 09:58:39;;;;;;;29.13;20.65;;;;;;;-145.63;48.41;38992.97;5080901;28;20028;-64
2023/12/06 10:01:05;;;;;;;33.13;22.33;;;;;;;-145.63;47.85;38998.81;5081142;28;20029;-64
2023/12/06 10:03:32;;;;;;;32.33;22.33;;;;;;;-145.63;48.67;39014.47;5083864;28;20033;-66
2023/12/06 10:06:03;;;;;;;34.22;22.13;;;;;;;-145.63;49.00;39018.38;5085160;28;20092;-65
2023/12/06 10:08:30;;;;;;;;;;;;;;;-145.63;49.02;39004.69;5085696;28;20023;-66
2023/12/06 10:11:07;;;;;;;32.88;22.02;;;;;;;-145.63;48.10;38987.09;5076829;28;19950;-65
2023/12/06 10:13:34;;;;;;;32.60;22.05;;;;;;;-145.63;48.25;38963.63;5074861;28;20029;-64
2023/12/06 10:16:00;;;;;;;27.65;20.65;;;;;;;-145.63;48.50;39014.47;5068959;28;20331;-64
2023/12/06 10:18:26;;;;;;;30.98;21.60;;;;;;;-145.63;47.74;38246.00;5084605;28;20036;-63
2023/12/06 10:20:52;;;;;;;29.50;21.48;;;;;;;-145.63;48.32;39004.69;5083346;28;20247;-64
2023/12/06 10:23:18;;;;;;;32.75;21.48;;;;;;;-145.63;47.78;39082.91;5084083;28;20024;-65
2023/12/06 10:25:47;;;;;;;31.65;21.27;;;;;;;-145.63;47.97;39018.38;5082249;28;20021;-65
2023/12/06 10:28:14;;;;;;;28.90;20.55;;;;;;;-145.63;47.82;39010.56;5083956;28;20032;-65
2023/12/06 10:30:40;;;;;;;27.73;21.17;;;;;;;-145.63;47.14;39004.69;5084169;28;20016;-65
2023/12/06 10:33:06;;;;;;;28.15;21.35;;;;;;;-145.63;48.96;38944.06;5084471;28;20027;-65
2023/12/06 10:35:33;;;;;;;29.88;21.95;;;;;;;-145.63;49.05;39006.66;5084442;28;20309;-66
2023/12/06 10:38:00;;;;;;;28.50;21.25;;;;;;;-145.63;48.40;39106.38;5076140;28;20021;-64
2023/12/06 10:40:26;;;;;;;26.20;19.63;;;;;;;-145.63;47.78;39018.38;5075644;28;20017;-65
2023/12/06 10:43:04;;;;;;;29.65;21.60;;;;;;;-145.63;47.83;38989.03;5083193;28;20024;-65
2023/12/06 10:45:32;;;;;;;26.38;20.70;;;;;;;-145.63;48.70;39014.47;5084240;28;20020;-65
2023/12/06 10:47:59;;;;;;;29.23;21.25;;;;;;;-145.63;48.38;38867.81;5070078;28;20286;-65
2023/12/06 10:50:25;;;;;;;27.27;19.85;;;;;;;-145.63;49.20;38979.28;5084302;28;20313;-64
2023/12/06 10:52:54;;;;;;;28.83;20.35;;;;;;;-145.63;48.19;39000.78;5083681;28;20251;-65
2023/12/06 10:55:22;;;;;;;30.27;21.48;;;;;;;-145.63;47.41;39028.16;5084177;28;20031;-65
2023/12/06 10:57:50;;;;;;;27.15;20.83;;;;;;;-145.63;49.08;39049.66;5082740;28;20263;-65